Time;durP1;ratioP1;P1;durP2;ratioP2;P2;SDS_P1;SDS_P2;PMS_P1;PMS_P2;Temp;Humidity;BMP_temperature;BMP_pressure;BME280_temperature;BME280_humidity;BME280_pressure;Samples;Min_cycle;Max_cycle;Signal;HPM_P1;HPM_P2
2021/07/06 00:01:31;;;;;;;4.95;3.15;;;;;;;19.31;70.79;99329.81;5113688;28;20115;-69
2021/07/06 00:04:01;;;;;;;5.63;3.08;;;;;;;19.35;70.48;99332.19;5113770;28;20100;-68
2021/07/06 00:06:30;;;;;;;4.93;2.75;;;;;;;19.35;70.19;99331.34;5112460;28;20116;-69
2021/07/06 00:09:02;;;;;;;5.68;2.90;;;;;;;19.31;70.01;99327.22;5113574;28;20047;-68
2021/07/06 00:11:31;;;;;;;4.18;2.85;;;;;;;19.31;69.80;99319.44;5114491;28;20048;-69
2021/07/06 00:14:02;;;;;;;5.82;2.83;;;;;;;19.24;70.05;99323.19;5117874;28;20044;-69
2021/07/06 00:16:31;;;;;;;4.28;2.80;;;;;;;19.20;69.89;99322.47;5117493;28;20048;-69
2021/07/06 00:19:00;;;;;;;;;;;;;;;18.98;70.09;99321.66;5117831;28;20043;-68
2021/07/06 00:21:30;;;;;;;4.97;2.85;;;;;;;18.79;70.79;99330.25;5117413;28;19920;-69
2021/07/06 00:24:00;;;;;;;4.65;2.90;;;;;;;18.70;71.24;99332.28;5117343;28;20126;-69
2021/07/06 00:26:30;;;;;;;6.40;2.95;;;;;;;18.76;71.26;99335.53;5117206;28;20093;-68
2021/07/06 00:29:01;;;;;;;9.23;4.55;;;;;;;18.73;71.33;99336.47;5117202;28;20043;-68
2021/07/06 00:31:31;;;;;;;5.38;2.83;;;;;;;18.59;71.47;99329.28;5117119;28;20047;-69
2021/07/06 00:34:01;;;;;;;6.35;3.22;;;;;;;18.45;71.86;99334.06;5117461;28;20493;-69
2021/07/06 00:36:30;;;;;;;4.70;2.78;;;;;;;18.21;72.42;99335.00;5117139;27;20059;-68
2021/07/06 00:39:01;;;;;;;3.75;2.20;;;;;;;18.18;72.98;99342.88;5117037;28;20062;-69
2021/07/06 00:41:30;;;;;;;4.65;2.85;;;;;;;18.23;72.86;99340.97;5117001;28;20044;-69
2021/07/06 00:43:59;;;;;;;3.80;2.40;;;;;;;18.37;72.77;99345.63;5116929;28;20041;-69
2021/07/06 00:46:29;;;;;;;4.20;2.63;;;;;;;18.31;72.72;99349.25;5116905;28;20044;-68
2021/07/06 00:48:58;;;;;;;3.83;2.33;;;;;;;18.26;72.44;99345.19;5115637;28;20059;-68
2021/07/06 00:51:27;;;;;;;3.55;2.30;;;;;;;18.16;72.68;99349.84;5116754;28;20043;-68
2021/07/06 00:53:57;;;;;;;4.00;2.53;;;;;;;18.30;72.68;99352.75;5116792;28;20504;-69
2021/07/06 00:56:27;;;;;;;4.25;2.83;;;;;;;18.35;72.47;99350.84;5117061;28;20493;-69
2021/07/06 00:58:57;;;;;;;5.22;2.80;;;;;;;18.33;72.01;99352.63;5117532;28;20389;-69
2021/07/06 01:01:27;;;;;;;3.83;2.58;;;;;;;18.23;71.88;99346.13;5116577;28;20123;-69
2021/07/06 01:04:08;;;;;;;3.78;2.40;;;;;;;18.18;72.31;99352.38;5116589;28;20048;-69
2021/07/06 01:06:38;;;;;;;5.55;2.60;;;;;;;18.05;72.35;99347.66;5116589;28;20134;-69
2021/07/06 01:09:08;;;;;;;4.47;2.50;;;;;;;17.99;72.54;99341.88;5116365;28;20058;-69
2021/07/06 01:11:38;;;;;;;;;;;;;;;18.02;72.90;99347.75;5116814;28;20051;-69
2021/07/06 01:14:08;;;;;;;4.50;2.90;;;;;;;18.14;72.68;99343.06;5116427;28;19919;-69
2021/07/06 01:16:37;;;;;;;4.53;2.30;;;;;;;18.02;72.65;99334.84;5116338;28;20089;-69
2021/07/06 01:19:06;;;;;;;4.18;2.60;;;;;;;17.99;72.79;99334.13;5116655;28;20043;-69
2021/07/06 01:21:36;;;;;;;4.30;2.28;;;;;;;17.93;72.95;99336.91;5116171;28;20453;-68
2021/07/06 01:24:07;;;;;;;4.63;2.28;;;;;;;17.97;72.96;99338.50;5116063;28;20519;-68
2021/07/06 01:26:36;;;;;;;3.55;2.20;;;;;;;18.10;73.00;99337.16;5116037;28;20046;-69
2021/07/06 01:29:05;;;;;;;3.97;2.40;;;;;;;18.14;72.60;99335.31;5116003;28;20047;-69
2021/07/06 01:31:34;;;;;;;4.70;2.63;;;;;;;18.22;72.25;99339.28;5115986;28;20036;-69
2021/07/06 01:34:04;;;;;;;4.72;2.58;;;;;;;18.17;72.14;99341.19;5114805;28;20054;-69
2021/07/06 01:36:33;;;;;;;3.75;2.22;;;;;;;18.07;72.21;99343.25;5116234;28;20040;-69
2021/07/06 01:39:02;;;;;;;4.55;2.40;;;;;;;18.05;72.29;99342.47;5115843;28;20078;-69
2021/07/06 01:41:33;;;;;;;4.40;2.65;;;;;;;18.03;72.25;99343.44;5115839;28;20131;-69
2021/07/06 01:44:03;;;;;;;5.95;2.40;;;;;;;17.82;72.11;99339.03;5116101;28;20110;-69
2021/07/06 01:46:32;;;;;;;4.13;2.60;;;;;;;17.47;73.08;99339.41;5115764;28;20047;-69
2021/07/06 01:49:01;;;;;;;4.03;2.50;;;;;;;17.37;73.33;99347.44;5115570;28;20126;-68
2021/07/06 01:51:31;;;;;;;5.43;2.60;;;;;;;17.27;74.20;99340.91;5115607;28;20043;-69
2021/07/06 01:54:00;;;;;;;5.75;2.85;;;;;;;17.21;74.18;99351.41;5115586;28;20040;-69
2021/07/06 01:56:29;;;;;;;4.70;2.60;;;;;;;17.03;74.78;99352.03;5114606;28;20068;-68
2021/07/06 01:59:00;;;;;;;3.97;2.65;;;;;;;17.15;75.17;99341.31;5115839;27;20595;-69
2021/07/06 02:01:29;;;;;;;4.05;2.28;;;;;;;17.39;74.90;99334.50;5116073;28;20093;-69
2021/07/06 02:03:59;;;;;;;4.15;2.55;;;;;;;17.49;73.96;99330.72;5115328;28;20505;-69
2021/07/06 02:06:28;;;;;;;3.85;2.40;;;;;;;17.64;73.72;99334.50;5115658;28;20034;-69
2021/07/06 02:08:58;;;;;;;3.25;2.08;;;;;;;17.72;73.19;99342.84;5115224;28;20074;-69
2021/07/06 02:11:27;;;;;;;;;;;;;;;17.75;72.95;99335.84;5116241;28;20031;-68
2021/07/06 02:13:57;;;;;;;3.53;2.33;;;;;;;17.69;72.95;99337.78;5115167;28;19964;-69
2021/07/06 02:16:27;;;;;;;;;;;;;;;17.54;73.07;99339.16;5116233;28;20039;-69
2021/07/06 02:18:57;;;;;;;4.47;2.60;;;;;;;17.39;73.30;99345.66;5115500;28;19920;-69
2021/07/06 02:21:26;;;;;;;3.85;2.30;;;;;;;17.29;73.79;99340.84;5115122;27;20130;-68
2021/07/06 02:23:57;;;;;;;4.45;2.40;;;;;;;17.25;74.15;99337.50;5115206;28;20051;-69
2021/07/06 02:26:26;;;;;;;5.70;2.70;;;;;;;17.27;73.97;99343.50;5114801;28;20044;-69
2021/07/06 02:28:55;;;;;;;4.90;2.60;;;;;;;17.28;74.09;99340.00;5114832;28;20554;-69
2021/07/06 02:31:24;;;;;;;7.13;3.40;;;;;;;17.19;74.32;99350.63;5114926;28;20043;-69
2021/07/06 02:33:55;;;;;;;5.72;3.25;;;;;;;17.07;74.93;99356.19;5114522;28;20070;-68
2021/07/06 02:36:24;;;;;;;4.47;2.90;;;;;;;16.94;74.98;99352.28;5114638;28;20048;-69
2021/07/06 02:38:54;;;;;;;4.63;2.60;;;;;;;16.84;75.31;99345.78;5114771;28;20473;-69
2021/07/06 02:41:24;;;;;;;5.15;2.30;;;;;;;16.64;75.26;99353.25;5114551;28;20414;-69
2021/07/06 02:43:53;;;;;;;5.00;2.95;;;;;;;16.59;75.95;99349.97;5114584;28;20051;-69
2021/07/06 02:46:22;;;;;;;4.13;2.55;;;;;;;16.47;75.92;99340.00;5114544;28;20366;-68
2021/07/06 02:48:51;;;;;;;5.10;2.50;;;;;;;16.57;76.54;99351.75;5114443;28;20493;-69
2021/07/06 02:51:22;;;;;;;4.20;2.67;;;;;;;16.75;75.89;99351.19;5114878;28;20079;-69
2021/07/06 02:53:51;;;;;;;5.50;3.15;;;;;;;16.85;75.87;99347.44;5114925;28;20386;-69
2021/07/06 02:56:20;;;;;;;4.53;2.97;;;;;;;16.90;75.76;99348.13;5114411;28;20477;-69
2021/07/06 02:58:49;;;;;;;4.45;2.90;;;;;;;16.96;75.59;99345.38;5114391;28;20071;-69
2021/07/06 03:01:18;;;;;;;4.73;2.97;;;;;;;17.00;75.43;99346.97;5114718;28;20069;-69
2021/07/06 03:03:47;;;;;;;4.55;3.03;;;;;;;17.04;75.34;99353.69;5114240;28;20404;-69
2021/07/06 03:06:16;;;;;;;5.45;2.97;;;;;;;17.07;75.22;99350.19;5114264;28;20039;-69
2021/07/06 03:08:48;;;;;;;6.00;3.20;;;;;;;17.14;75.55;99354.25;5114220;28;20404;-68
2021/07/06 03:11:17;;;;;;;4.28;2.67;;;;;;;17.31;75.42;99351.97;5114582;28;20051;-69
2021/07/06 03:13:46;;;;;;;4.78;2.92;;;;;;;17.48;74.59;99359.13;5114537;28;20040;-68
2021/07/06 03:16:15;;;;;;;4.57;2.80;;;;;;;17.54;73.84;99353.81;5114107;28;20050;-69
2021/07/06 03:18:45;;;;;;;5.07;2.88;;;;;;;17.64;73.30;99350.84;5114137;28;20047;-69
2021/07/06 03:21:14;;;;;;;4.88;3.08;;;;;;;17.79;72.56;99364.97;5114108;28;20050;-69
2021/07/06 03:23:43;;;;;;;3.80;2.47;;;;;;;17.86;72.34;99377.59;5114386;28;20035;-69
2021/07/06 03:26:14;;;;;;;5.88;2.90;;;;;;;17.80;71.94;99382.16;5113860;28;20143;-69
2021/07/06 03:28:43;;;;;;;3.90;2.50;;;;;;;17.75;72.09;99384.03;5113979;28;20055;-69
2021/07/06 03:31:12;;;;;;;5.50;3.13;;;;;;;17.73;71.94;99380.69;5113993;28;20040;-69
2021/07/06 03:33:41;;;;;;;5.80;2.90;;;;;;;17.51;72.38;99382.25;5114301;28;20460;-69
2021/07/06 03:36:12;;;;;;;6.00;3.20;;;;;;;17.48;72.90;99380.63;5114114;28;20050;-69
2021/07/06 03:38:41;;;;;;;5.05;3.10;;;;;;;17.84;72.94;99370.81;5114231;28;20104;-69
2021/07/06 03:41:10;;;;;;;4.22;2.60;;;;;;;18.17;72.02;99382.53;5113946;28;20550;-69
2021/07/06 03:43:40;;;;;;;5.03;2.50;;;;;;;18.32;71.12;99381.13;5113884;28;20489;-69
2021/07/06 03:46:10;;;;;;;6.63;2.90;;;;;;;18.21;71.13;99373.75;5114030;28;20118;-69
2021/07/06 03:48:39;;;;;;;6.60;2.60;;;;;;;18.24;70.88;99373.63;5118048;28;20055;-69
2021/07/06 03:51:08;;;;;;;6.65;3.08;;;;;;;18.13;71.34;99370.63;5118532;28;20085;-69
2021/07/06 03:53:37;;;;;;;5.32;2.88;;;;;;;18.05;71.48;99382.97;5118277;28;20434;-69
2021/07/06 03:56:07;;;;;;;6.53;3.00;;;;;;;17.92;71.98;99379.13;5117815;27;20071;-69
2021/07/06 03:58:36;;;;;;;6.85;3.28;;;;;;;18.03;71.98;99384.75;5117847;28;20044;-69
2021/07/06 04:01:06;;;;;;;6.32;2.70;;;;;;;18.01;72.23;99371.06;5117804;27;20044;-69
2021/07/06 04:03:36;;;;;;;4.65;2.80;;;;;;;18.20;72.05;99372.09;5118122;28;20096;-69
2021/07/06 04:06:06;;;;;;;5.55;2.90;;;;;;;18.39;71.81;99373.09;5117625;28;20043;-69
2021/07/06 04:08:35;;;;;;;5.15;2.88;;;;;;;18.50;71.26;99370.97;5117546;28;20093;-69
2021/07/06 04:11:04;;;;;;;7.85;2.75;;;;;;;18.55;71.28;99379.38;5117586;28;20119;-69
2021/07/06 04:13:33;;;;;;;10.82;3.70;;;;;;;18.76;71.21;99370.00;5117561;28;20516;-69
2021/07/06 04:16:02;;;;;;;;;;;;;;;18.90;71.02;99375.47;5117879;28;20133;-68
2021/07/06 04:18:33;;;;;;;9.25;4.40;;;;;;;18.94;70.90;99386.50;5117476;28;19924;-68
2021/07/06 04:21:06;;;;;;;8.07;4.00;;;;;;;19.01;71.08;99393.97;5117454;28;20052;-68
2021/07/06 04:23:35;;;;;;;7.28;4.80;;;;;;;19.18;71.01;99385.53;5117415;28;20048;-68
2021/07/06 04:26:06;;;;;;;6.53;4.65;;;;;;;19.33;70.91;99379.75;5115958;28;20051;-68
2021/07/06 04:28:35;;;;;;;8.57;4.70;;;;;;;19.44;70.32;99390.53;5117651;28;20039;-69
2021/07/06 04:31:05;;;;;;;6.45;4.47;;;;;;;19.53;70.03;99382.38;5117204;28;20036;-68
2021/07/06 04:33:35;;;;;;;;;;;;;;;19.54;69.75;99386.66;5117589;28;20035;-68
2021/07/06 04:36:05;;;;;;;9.70;5.07;;;;;;;19.50;69.94;99376.50;5117152;28;19927;-68
2021/07/06 04:38:34;;;;;;;8.48;4.78;;;;;;;19.65;69.81;99381.03;5117282;28;20540;-69
2021/07/06 04:41:04;;;;;;;8.00;5.40;;;;;;;19.84;69.50;99380.16;5117004;28;20407;-67
2021/07/06 04:43:33;;;;;;;7.43;5.18;;;;;;;19.93;69.01;99379.78;5116997;28;20043;-68
2021/07/06 04:46:02;;;;;;;10.10;5.15;;;;;;;20.17;68.80;99377.00;5116944;28;20043;-68
2021/07/06 04:48:31;;;;;;;9.20;4.78;;;;;;;20.31;68.14;99377.28;5116905;27;20374;-68
2021/07/06 04:51:06;;;;;;;;;;;;;;;20.50;67.99;99378.13;5117247;28;20035;-69
2021/07/06 04:53:36;;;;;;;8.40;4.43;;;;;;;20.80;67.27;99381.06;5116835;28;19976;-68
2021/07/06 04:56:06;;;;;;;8.15;4.22;;;;;;;20.96;66.67;99393.22;5116689;28;20047;-69
2021/07/06 04:58:37;;;;;;;6.88;4.35;;;;;;;21.10;66.36;99385.66;5116103;28;20085;-69
2021/07/06 05:01:07;;;;;;;6.28;4.38;;;;;;;21.16;65.80;99385.34;5116683;28;20096;-69
2021/07/06 05:03:37;;;;;;;;;;;;;;;21.29;65.44;99385.59;5117003;28;20048;-69
2021/07/06 05:06:07;;;;;;;6.70;4.00;;;;;;;21.40;65.12;99372.94;5116637;28;19965;-69
2021/07/06 05:08:37;;;;;;;7.53;4.35;;;;;;;21.49;64.91;99379.41;5116427;28;20089;-69
2021/07/06 05:11:06;;;;;;;7.40;4.68;;;;;;;21.65;64.67;99375.13;5116694;27;20036;-68
2021/07/06 05:13:36;;;;;;;6.25;4.28;;;;;;;21.83;64.55;99382.00;5116934;28;20039;-68
2021/07/06 05:16:05;;;;;;;;;;;;;;;21.94;63.92;99382.31;5116705;28;20036;-68
2021/07/06 05:18:34;;;;;;;7.53;4.45;;;;;;;22.02;63.56;99373.22;5116468;28;20360;-69
2021/07/06 05:21:03;;;;;;;9.50;4.70;;;;;;;22.20;63.34;99381.78;5116838;28;20481;-69
2021/07/06 05:23:34;;;;;;;8.02;4.88;;;;;;;22.29;63.62;99383.91;5116216;28;20051;-69
2021/07/06 05:26:04;;;;;;;6.35;4.70;;;;;;;22.44;63.28;99390.03;5115919;28;20124;-69
2021/07/06 05:28:33;;;;;;;6.30;4.00;;;;;;;22.59;63.38;99384.03;5116115;28;20049;-68
2021/07/06 05:31:03;;;;;;;6.88;4.40;;;;;;;22.72;63.01;99387.69;5116102;28;20036;-69
2021/07/06 05:33:33;;;;;;;8.02;4.28;;;;;;;22.84;62.47;99374.00;5116000;28;20613;-69
2021/07/06 05:36:02;;;;;;;;;;;;;;;23.04;61.79;99391.06;5115436;28;20040;-69
2021/07/06 05:38:31;;;;;;;8.25;4.90;;;;;;;23.16;61.28;99395.59;5115845;28;19946;-67
2021/07/06 05:41:06;;;;;;;7.60;4.70;;;;;;;23.32;61.24;99396.41;5116500;28;20419;-69
2021/07/06 05:43:36;;;;;;;6.95;4.40;;;;;;;23.41;60.87;99395.91;5115849;28;20062;-69
2021/07/06 05:46:05;;;;;;;6.40;4.45;;;;;;;23.51;60.20;99402.28;5115768;28;20071;-69
2021/07/06 05:48:34;;;;;;;9.43;4.80;;;;;;;23.56;60.06;99389.84;5115675;28;20070;-69
2021/07/06 05:51:03;;;;;;;7.45;4.75;;;;;;;23.67;59.78;99397.84;5115524;28;20036;-68
2021/07/06 05:53:32;;;;;;;;;;;;;;;23.67;59.60;99397.84;5116017;28;20576;-69
2021/07/06 05:56:03;;;;;;;5.70;4.10;;;;;;;23.82;59.44;99394.34;5115525;28;19920;-69
2021/07/06 05:58:32;;;;;;;7.25;4.60;;;;;;;23.98;58.96;99392.50;5115706;27;20048;-68
2021/07/06 06:01:01;;;;;;;6.80;4.18;;;;;;;24.09;58.82;99398.88;5115401;28;20484;-68
2021/07/06 06:03:30;;;;;;;7.00;4.22;;;;;;;24.29;58.38;99398.47;5115779;28;20038;-69
2021/07/06 06:06:00;;;;;;;;;;;;;;;24.36;58.11;99398.03;5115829;28;20489;-68
2021/07/06 06:08:29;;;;;;;;;;;;;;;24.43;58.19;99401.06;5115673;28;19920;-68
2021/07/06 06:10:58;;;;;;;5.47;4.10;;;;;;;24.54;57.80;99391.69;5114739;28;20432;-68
2021/07/06 06:13:28;;;;;;;8.55;4.20;;;;;;;24.68;57.97;99396.03;5115516;28;20429;-68
2021/07/06 06:15:58;;;;;;;6.28;3.97;;;;;;;24.73;57.47;99407.03;5115213;27;20520;-68
2021/07/06 06:18:27;;;;;;;8.05;4.00;;;;;;;24.78;57.04;99405.00;5115277;28;20038;-68
2021/07/06 06:20:56;;;;;;;8.57;4.00;;;;;;;24.90;56.91;99409.44;5115073;28;20050;-68
2021/07/06 06:23:25;;;;;;;5.68;4.00;;;;;;;25.00;56.56;99412.31;5115276;28;20043;-68
2021/07/06 06:25:55;;;;;;;5.85;4.03;;;;;;;25.08;56.44;99413.47;5114940;28;20036;-68
2021/07/06 06:28:24;;;;;;;5.40;3.72;;;;;;;25.18;56.39;99408.50;5114856;28;20046;-67
2021/07/06 06:30:55;;;;;;;5.80;3.70;;;;;;;25.35;55.72;99415.25;5114750;28;20056;-68
2021/07/06 06:33:24;;;;;;;6.50;3.70;;;;;;;25.44;54.97;99414.63;5115194;28;20096;-68
2021/07/06 06:35:54;;;;;;;6.97;4.03;;;;;;;25.66;54.66;99407.06;5114778;28;20044;-68
2021/07/06 06:38:23;;;;;;;8.48;4.22;;;;;;;25.77;53.78;99415.06;5114723;28;20047;-68
2021/07/06 06:40:52;;;;;;;6.30;3.88;;;;;;;25.92;53.17;99411.38;5114667;28;20046;-67
2021/07/06 06:43:26;;;;;;;7.15;3.70;;;;;;;26.00;52.52;99419.56;5115004;28;20043;-66
2021/07/06 06:45:57;;;;;;;5.68;3.50;;;;;;;26.05;52.27;99417.47;5114838;28;20051;-68
2021/07/06 06:48:28;;;;;;;5.35;3.53;;;;;;;26.20;52.46;99415.63;5114541;28;20056;-69
2021/07/06 06:50:58;;;;;;;5.38;3.78;;;;;;;26.32;52.36;99410.34;5114492;28;20051;-67
2021/07/06 06:53:27;;;;;;;5.22;3.60;;;;;;;26.32;52.13;99405.13;5114731;28;20071;-69
2021/07/06 06:55:56;;;;;;;5.10;3.30;;;;;;;26.45;51.61;99411.19;5114805;28;20070;-68
2021/07/06 06:58:25;;;;;;;5.82;3.40;;;;;;;26.60;51.44;99407.50;5114677;28;20114;-68
2021/07/06 07:00:54;;;;;;;6.78;3.55;;;;;;;26.67;50.84;99407.06;5114360;28;20485;-68
2021/07/06 07:03:25;;;;;;;;;;;;;;;26.52;51.55;99409.81;5114709;28;20051;-68
2021/07/06 07:05:54;;;;;;;6.32;3.92;;;;;;;26.32;51.74;99410.34;5114388;28;19927;-68
2021/07/06 07:08:23;;;;;;;7.07;3.88;;;;;;;26.33;51.51;99406.81;5114577;28;20059;-68
2021/07/06 07:10:52;;;;;;;5.38;3.50;;;;;;;26.46;51.84;99412.88;5114064;28;20040;-69
2021/07/06 07:13:21;;;;;;;4.55;3.22;;;;;;;26.80;50.99;99413.13;5114163;28;20088;-68
2021/07/06 07:15:50;;;;;;;4.82;3.67;;;;;;;26.93;50.32;99411.31;5114064;28;20047;-69
2021/07/06 07:18:19;;;;;;;6.80;3.22;;;;;;;27.08;49.60;99410.19;5113974;28;20047;-68
2021/07/06 07:20:50;;;;;;;5.00;3.05;;;;;;;27.16;49.79;99403.44;5113950;28;20044;-69
2021/07/06 07:23:19;;;;;;;4.75;3.25;;;;;;;27.13;49.77;99414.16;5113880;28;20065;-69
2021/07/06 07:25:48;;;;;;;5.18;3.25;;;;;;;27.30;50.19;99410.31;5112446;28;20079;-69
2021/07/06 07:28:17;;;;;;;;;;;;;;;27.50;49.26;99412.31;5114302;28;20069;-68
2021/07/06 07:30:46;;;;;;;3.80;2.50;;;;;;;27.71;48.39;99409.88;5113780;28;19924;-68
2021/07/06 07:33:15;;;;;;;4.53;2.88;;;;;;;27.93;48.43;99408.13;5113993;28;20117;-68
2021/07/06 07:35:44;;;;;;;6.68;3.25;;;;;;;28.03;48.18;99405.66;5113792;28;20032;-68
2021/07/06 07:38:15;;;;;;;5.18;3.17;;;;;;;28.08;47.34;99408.78;5113945;28;20051;-67
2021/07/06 07:40:44;;;;;;;5.38;3.03;;;;;;;28.16;47.54;99410.81;5113867;28;20115;-69
2021/07/06 07:43:13;;;;;;;5.30;2.92;;;;;;;28.02;47.92;99408.41;5113780;28;20050;-68
2021/07/06 07:45:42;;;;;;;4.05;2.70;;;;;;;28.02;47.34;99405.78;5113781;28;20046;-68
2021/07/06 07:48:11;;;;;;;3.90;2.65;;;;;;;28.11;46.56;99410.34;5113875;28;20443;-69
2021/07/06 07:50:40;;;;;;;;;;;;;;;28.19;46.71;99407.97;5114260;28;20090;-68
2021/07/06 07:53:09;;;;;;;4.83;2.83;;;;;;;28.43;45.78;99409.50;5113616;28;19920;-68
2021/07/06 07:55:39;;;;;;;4.05;2.60;;;;;;;28.51;44.89;99406.28;5113740;28;20082;-68
2021/07/06 07:58:08;;;;;;;3.75;2.40;;;;;;;28.62;44.40;99408.94;5113715;28;20066;-68
2021/07/06 08:00:37;;;;;;;3.60;2.50;;;;;;;28.63;43.50;99407.97;5113558;28;20046;-68
2021/07/06 08:03:06;;;;;;;3.63;2.10;;;;;;;28.75;43.02;99409.63;5113762;28;20085;-69
2021/07/06 08:05:35;;;;;;;3.70;2.25;;;;;;;28.99;41.70;99406.81;5113986;28;20035;-68
2021/07/06 08:08:05;;;;;;;4.53;2.28;;;;;;;29.18;41.32;99407.88;5113587;28;20073;-68
2021/07/06 08:10:34;;;;;;;3.72;1.80;;;;;;;29.22;39.68;99407.63;5113643;28;20074;-68
2021/07/06 08:13:04;;;;;;;;;;;;;;;29.31;39.44;99404.22;5113794;28;20122;-68
2021/07/06 08:15:33;;;;;;;1.67;1.17;;;;;;;29.47;37.95;99402.00;5113729;28;20342;-68
2021/07/06 08:18:02;;;;;;;2.10;1.20;;;;;;;29.62;36.60;99401.56;5113470;28;20063;-69
2021/07/06 08:20:31;;;;;;;3.00;1.60;;;;;;;29.48;36.46;99403.69;5113550;28;20050;-69
2021/07/06 08:23:00;;;;;;;3.30;1.90;;;;;;;29.10;38.30;99399.75;5113081;28;20485;-69
2021/07/06 08:25:29;;;;;;;3.67;1.90;;;;;;;29.18;38.92;99397.34;5113330;28;20039;-69
2021/07/06 08:27:58;;;;;;;3.13;2.10;;;;;;;29.40;38.98;99393.78;5113480;28;20066;-68
2021/07/06 08:30:28;;;;;;;2.92;1.63;;;;;;;29.47;40.68;99386.22;5113397;28;20044;-68
2021/07/06 08:32:57;;;;;;;2.22;1.35;;;;;;;29.62;38.60;99387.56;5114328;28;20047;-69
2021/07/06 08:35:26;;;;;;;;;;;;;;;29.71;38.19;99392.06;5117757;28;20040;-68
2021/07/06 08:37:55;;;;;;;3.47;1.73;;;;;;;29.99;37.61;99399.34;5116943;28;19926;-69
2021/07/06 08:40:24;;;;;;;;;;;;;;;30.13;36.56;99391.09;5117191;28;20097;-68
2021/07/06 08:42:58;;;;;;;4.18;1.65;;;;;;;30.27;35.93;99388.09;5116901;28;19926;-69
2021/07/06 08:45:30;;;;;;;2.50;1.40;;;;;;;30.47;35.90;99384.59;5117020;27;20059;-69
2021/07/06 08:47:59;;;;;;;2.53;1.55;;;;;;;30.69;38.16;99385.38;5116766;28;20051;-69
2021/07/06 08:50:28;;;;;;;2.47;1.35;;;;;;;30.59;37.87;99379.25;5116857;28;20036;-69
2021/07/06 08:52:57;;;;;;;2.13;1.25;;;;;;;30.28;36.98;99384.50;5116818;28;20133;-69
2021/07/06 08:55:26;;;;;;;2.10;1.38;;;;;;;30.36;36.74;99381.22;5116652;28;20115;-68
2021/07/06 08:57:56;;;;;;;1.90;1.30;;;;;;;30.16;36.42;99384.75;5116605;28;20042;-67
2021/07/06 09:00:29;;;;;;;2.22;1.38;;;;;;;30.24;36.29;99379.63;5116599;28;20078;-69
2021/07/06 09:03:07;;;;;;;1.77;1.10;;;;;;;30.42;36.37;99392.09;5116691;28;20130;-69
2021/07/06 09:05:39;;;;;;;2.90;1.30;;;;;;;30.54;36.08;99384.06;5116551;28;20071;-69
2021/07/06 09:08:10;;;;;;;2.03;1.38;;;;;;;30.91;36.59;99382.50;5116465;28;20051;-69
2021/07/06 09:10:46;;;;;;;2.85;1.60;;;;;;;30.71;36.43;99386.06;5115122;28;20047;-69
2021/07/06 09:13:20;;;;;;;2.42;1.48;;;;;;;30.61;35.95;99375.50;5116370;28;20067;-70
2021/07/06 09:15:54;;;;;;;2.20;1.40;;;;;;;30.39;35.54;99381.81;5116327;28;20042;-70
2021/07/06 09:18:30;;;;;;;2.65;1.60;;;;;;;30.17;35.69;99379.31;5116560;28;20126;-70
2021/07/06 09:21:03;;;;;;;2.03;1.27;;;;;;;30.07;35.65;99374.97;5116311;28;20684;-70
2021/07/06 09:23:34;;;;;;;1.88;1.33;;;;;;;30.07;35.90;99349.47;5116157;28;20044;-69
2021/07/06 09:26:22;;;;;;;2.53;1.70;;;;;;;30.21;35.51;99357.03;5116195;28;20051;-69
2021/07/06 09:28:53;;;;;;;4.28;1.33;;;;;;;30.59;35.14;99368.69;5116254;28;20043;-71
2021/07/06 09:31:26;;;;;;;3.35;1.40;;;;;;;30.66;34.63;99351.38;5116126;28;20040;-69
2021/07/06 09:34:00;;;;;;;2.97;1.20;;;;;;;30.81;34.64;99356.09;5115138;28;20043;-69
2021/07/06 09:36:38;;;;;;;2.10;1.20;;;;;;;31.11;34.41;99366.56;5115985;27;20085;-69
2021/07/06 09:39:13;;;;;;;2.80;1.30;;;;;;;31.39;34.36;99364.88;5116016;28;20543;-69
2021/07/06 09:41:46;;;;;;;4.65;1.48;;;;;;;31.64;33.53;99366.16;5115758;28;20134;-69
2021/07/06 09:44:21;;;;;;;2.47;1.38;;;;;;;31.44;33.23;99362.69;5116054;28;20100;-68
2021/07/06 09:46:55;;;;;;;2.20;1.40;;;;;;;31.49;33.34;99364.91;5115824;28;20515;-69
2021/07/06 09:49:27;;;;;;;2.88;1.25;;;;;;;31.61;32.89;99361.13;5115751;28;20131;-68
2021/07/06 09:51:59;;;;;;;2.22;1.00;;;;;;;31.94;33.43;99362.47;5115664;28;20047;-69
2021/07/06 09:54:32;;;;;;;1.98;1.23;;;;;;;31.68;32.43;99357.78;5115509;28;20077;-69
2021/07/06 09:57:13;;;;;;;2.42;1.08;;;;;;;31.74;32.88;99359.88;5115525;28;20055;-68
2021/07/06 09:59:57;;;;;;;2.30;1.23;;;;;;;31.96;32.20;99352.59;5115467;28;20043;-69
2021/07/06 10:02:28;;;;;;;2.97;1.10;;;;;;;32.24;31.98;99359.59;5115356;28;20505;-69
2021/07/06 10:05:03;;;;;;;2.03;1.20;;;;;;;32.57;31.79;99351.09;5115449;28;20501;-70
2021/07/06 10:07:32;;;;;;;1.83;1.13;;;;;;;32.06;32.29;99361.34;5115264;28;20123;-69
2021/07/06 10:10:01;;;;;;;2.22;1.35;;;;;;;31.69;31.37;99354.19;5115170;28;20500;-69
2021/07/06 10:12:31;;;;;;;;;;;;;;;31.69;32.13;99351.56;5115474;28;20497;-70
2021/07/06 10:14:59;;;;;;;;;;;;;;;31.98;32.00;99353.28;5115465;28;19973;-69
2021/07/06 10:17:47;;;;;;;2.75;1.30;;;;;;;32.01;32.61;99353.81;5114984;28;19955;-69
2021/07/06 10:20:20;;;;;;;1.83;1.20;;;;;;;32.33;31.71;99340.19;5114875;28;20141;-69
2021/07/06 10:22:50;;;;;;;2.42;1.35;;;;;;;32.58;32.67;99342.19;5115058;28;20386;-68
2021/07/06 10:29:34;;;;;;;1.88;1.20;;;;;;;32.06;31.81;99341.03;5079413;22;20127;-68
2021/07/06 10:32:05;;;;;;;2.75;1.23;;;;;;;31.95;31.65;99343.81;5036316;28;20499;-71
2021/07/06 10:34:44;;;;;;;2.25;1.00;;;;;;;31.82;31.91;99342.50;5054316;28;20118;-71
2021/07/06 10:37:29;;;;;;;2.33;1.38;;;;;;;31.46;32.31;99336.19;5054220;28;20041;-68
2021/07/06 10:40:14;;;;;;;2.00;1.27;;;;;;;32.02;33.09;99338.81;5036126;28;20406;-68
2021/07/06 10:42:45;;;;;;;2.42;1.40;;;;;;;32.43;32.28;99335.69;5054057;28;20045;-69
2021/07/06 10:45:17;;;;;;;1.70;1.20;;;;;;;32.72;32.27;99332.91;5053893;28;20065;-69
2021/07/06 10:47:48;;;;;;;2.22;1.27;;;;;;;33.12;31.78;99335.13;5053992;28;20045;-69
2021/07/06 10:50:26;;;;;;;4.30;1.42;;;;;;;33.38;30.97;99336.03;5053855;28;20132;-69
2021/07/06 10:53:16;;;;;;;1.98;1.30;;;;;;;33.45;30.63;99331.78;5053773;28;20041;-69
2021/07/06 10:55:59;;;;;;;2.63;1.30;;;;;;;33.67;30.55;99331.25;5053757;28;20057;-67
2021/07/06 10:58:49;;;;;;;1.95;1.10;;;;;;;33.34;30.27;99334.66;5053774;28;20049;-69
2021/07/06 11:01:39;;;;;;;2.03;1.30;;;;;;;32.84;30.38;99327.25;5053713;28;20048;-70
2021/07/06 11:04:13;;;;;;;1.90;1.23;;;;;;;32.58;30.44;99322.84;5053745;28;20045;-67
2021/07/06 11:06:53;;;;;;;2.72;1.00;;;;;;;32.66;31.01;99323.75;5053888;28;20044;-68
2021/07/06 11:09:48;;;;;;;1.83;1.20;;;;;;;33.15;31.88;99322.44;5053691;28;20084;-69
2021/07/06 11:12:23;;;;;;;1.88;1.30;;;;;;;33.56;31.10;99313.84;5053663;28;20491;-68
2021/07/06 11:14:53;;;;;;;2.17;1.30;;;;;;;33.88;31.10;99318.50;5053716;28;20041;-69
2021/07/06 11:17:33;;;;;;;1.98;1.27;;;;;;;33.96;31.57;99310.56;5053805;28;20472;-68
2021/07/06 11:20:05;;;;;;;2.20;1.30;;;;;;;34.22;30.72;99321.97;5053435;28;20052;-68
2021/07/06 11:22:41;;;;;;;1.90;1.23;;;;;;;34.11;30.54;99316.97;5053578;28;20091;-69
2021/07/06 11:25:23;;;;;;;1.67;1.27;;;;;;;33.38;30.10;99317.50;5053332;28;20048;-69
2021/07/06 11:27:58;;;;;;;1.60;1.17;;;;;;;33.11;30.87;99312.31;5053008;28;20049;-68
2021/07/06 11:30:30;;;;;;;1.63;1.15;;;;;;;33.16;30.72;99310.03;5053252;28;20044;-67
2021/07/06 11:33:07;;;;;;;2.00;1.20;;;;;;;33.44;30.44;99303.63;5053165;28;20057;-70
2021/07/06 11:35:38;;;;;;;1.73;1.10;;;;;;;33.74;30.12;99295.22;5053231;28;20044;-69
2021/07/06 11:38:09;;;;;;;2.00;1.25;;;;;;;34.02;30.92;99299.34;5035358;28;20492;-69
2021/07/06 11:40:40;;;;;;;2.03;1.10;;;;;;;34.42;30.78;99295.19;5053580;28;20041;-69
2021/07/06 11:43:13;;;;;;;2.20;1.30;;;;;;;34.57;30.27;99298.91;5053282;28;20131;-69
2021/07/06 11:45:47;;;;;;;1.80;1.27;;;;;;;34.60;29.84;99293.28;5053547;28;20107;-69
2021/07/06 11:48:17;;;;;;;2.40;1.25;;;;;;;34.51;30.38;99288.91;5052125;28;20581;-69
2021/07/06 11:50:48;;;;;;;2.10;1.20;;;;;;;34.05;29.07;99298.25;5053326;28;20417;-69
2021/07/06 11:53:25;;;;;;;2.30;1.20;;;;;;;33.67;29.93;99292.38;5052821;28;20045;-67
2021/07/06 11:55:57;;;;;;;2.30;1.15;;;;;;;33.49;30.21;99296.06;5053435;28;20041;-67
2021/07/06 11:58:29;;;;;;;2.60;1.40;;;;;;;33.54;29.83;99280.56;5053285;28;20045;-68
2021/07/06 12:01:00;;;;;;;2.40;1.23;;;;;;;33.80;29.70;99281.38;5053100;28;20056;-68